sensor_id;sensor_type;location;lat;lon;timestamp;temperature;humidity
21167;DHT22;10741;52.272;9.580;2023-05-02T00:02:04;10.90;99.90
21167;DHT22;10741;52.272;9.580;2023-05-02T00:04:30;11.00;99.90
21167;DHT22;10741;52.272;9.580;2023-05-02T00:06:55;11.00;99.90
21167;DHT22;10741;52.272;9.580;2023-05-02T00:09:21;10.90;99.90
21167;DHT22;10741;52.272;9.580;2023-05-02T00:11:48;11.00;99.90
21167;DHT22;10741;52.272;9.580;2023-05-02T00:14:14;11.00;99.90
21167;DHT22;10741;52.272;9.580;2023-05-02T00:16:39;10.90;99.90
21167;DHT22;10741;52.272;9.580;2023-05-02T00:19:05;10.90;99.90
21167;DHT22;10741;52.272;9.580;2023-05-02T00:21:31;11.00;99.90
21167;DHT22;10741;52.272;9.580;2023-05-02T00:23:57;11.00;99.90
21167;DHT22;10741;52.272;9.580;2023-05-02T00:26:23;11.00;99.90
21167;DHT22;10741;52.272;9.580;2023-05-02T00:28:49;11.00;99.90
21167;DHT22;10741;52.272;9.580;2023-05-02T00:31:15;11.00;99.90
21167;DHT22;10741;52.272;9.580;2023-05-02T00:33:41;11.10;99.90
21167;DHT22;10741;52.272;9.580;2023-05-02T00:36:17;11.10;99.90
21167;DHT22;10741;52.272;9.580;2023-05-02T00:38:43;11.10;99.90
21167;DHT22;10741;52.272;9.580;2023-05-02T00:41:10;11.10;99.90
21167;DHT22;10741;52.272;9.580;2023-05-02T00:43:36;11.10;99.90
21167;DHT22;10741;52.272;9.580;2023-05-02T00:46:04;11.10;99.90
21167;DHT22;10741;52.272;9.580;2023-05-02T00:48:31;11.10;99.90
21167;DHT22;10741;52.272;9.580;2023-05-02T00:50:57;11.10;99.90
21167;DHT22;10741;52.272;9.580;2023-05-02T00:53:23;11.10;99.90
21167;DHT22;10741;52.272;9.580;2023-05-02T00:55:49;11.10;99.90
21167;DHT22;10741;52.272;9.580;2023-05-02T00:58:16;11.10;99.90
21167;DHT22;10741;52.272;9.580;2023-05-02T01:01:10;11.20;99.90
21167;DHT22;10741;52.272;9.580;2023-05-02T01:12:15;11.30;99.90
21167;DHT22;10741;52.272;9.580;2023-05-02T01:14:47;11.20;99.90
21167;DHT22;10741;52.272;9.580;2023-05-02T01:17:16;11.30;99.90
21167;DHT22;10741;52.272;9.580;2023-05-02T01:19:52;11.30;99.90
21167;DHT22;10741;52.272;9.580;2023-05-02T01:22:20;11.30;99.90
21167;DHT22;10741;52.272;9.580;2023-05-02T01:30:19;11.30;99.90
21167;DHT22;10741;52.272;9.580;2023-05-02T01:32:46;11.30;99.90
21167;DHT22;10741;52.272;9.580;2023-05-02T01:35:15;11.30;99.90
21167;DHT22;10741;52.272;9.580;2023-05-02T01:37:44;11.30;99.90
21167;DHT22;10741;52.272;9.580;2023-05-02T01:40:14;11.30;99.90
21167;DHT22;10741;52.272;9.580;2023-05-02T01:42:43;11.40;99.90
21167;DHT22;10741;52.272;9.580;2023-05-02T01:45:11;11.40;99.90
21167;DHT22;10741;52.272;9.580;2023-05-02T01:47:39;11.40;99.90
21167;DHT22;10741;52.272;9.580;2023-05-02T01:50:07;11.40;99.90
21167;DHT22;10741;52.272;9.580;2023-05-02T01:52:36;11.40;99.90
21167;DHT22;10741;52.272;9.580;2023-05-02T01:55:05;11.40;99.90
21167;DHT22;10741;52.272;9.580;2023-05-02T01:57:34;11.30;99.90
21167;DHT22;10741;52.272;9.580;2023-05-02T02:00:02;11.30;99.90
21167;DHT22;10741;52.272;9.580;2023-05-02T02:02:29;11.30;99.90
21167;DHT22;10741;52.272;9.580;2023-05-02T02:04:56;11.20;99.90
21167;DHT22;10741;52.272;9.580;2023-05-02T02:07:24;11.20;99.90
21167;DHT22;10741;52.272;9.580;2023-05-02T02:09:50;11.20;99.90
21167;DHT22;10741;52.272;9.580;2023-05-02T02:14:45;11.10;99.90
21167;DHT22;10741;52.272;9.580;2023-05-02T02:17:15;11.10;99.90
21167;DHT22;10741;52.272;9.580;2023-05-02T02:19:46;11.00;99.90
21167;DHT22;10741;52.272;9.580;2023-05-02T02:22:14;11.00;99.90
21167;DHT22;10741;52.272;9.580;2023-05-02T02:24:43;11.00;99.90
21167;DHT22;10741;52.272;9.580;2023-05-02T02:27:10;11.00;99.90
21167;DHT22;10741;52.272;9.580;2023-05-02T02:29:36;11.00;99.90
21167;DHT22;10741;52.272;9.580;2023-05-02T02:32:02;11.00;99.90
21167;DHT22;10741;52.272;9.580;2023-05-02T02:34:28;10.90;99.90
21167;DHT22;10741;52.272;9.580;2023-05-02T02:37:06;10.90;99.90
21167;DHT22;10741;52.272;9.580;2023-05-02T02:42:33;11.00;99.90
21167;DHT22;10741;52.272;9.580;2023-05-02T02:48:38;11.00;99.90
21167;DHT22;10741;52.272;9.580;2023-05-02T02:51:13;11.10;99.90
21167;DHT22;10741;52.272;9.580;2023-05-02T02:56:16;11.10;99.90
21167;DHT22;10741;52.272;9.580;2023-05-02T02:59:01;11.10;99.90
21167;DHT22;10741;52.272;9.580;2023-05-02T03:01:31;11.10;99.90
21167;DHT22;10741;52.272;9.580;2023-05-02T03:03:57;11.10;99.90
21167;DHT22;10741;52.272;9.580;2023-05-02T03:06:24;11.10;99.90
21167;DHT22;10741;52.272;9.580;2023-05-02T03:08:50;11.10;99.90
21167;DHT22;10741;52.272;9.580;2023-05-02T03:11:16;11.10;99.90
21167;DHT22;10741;52.272;9.580;2023-05-02T03:13:41;11.10;99.90
21167;DHT22;10741;52.272;9.580;2023-05-02T03:19:12;11.10;99.90
21167;DHT22;10741;52.272;9.580;2023-05-02T03:21:37;11.10;99.90
21167;DHT22;10741;52.272;9.580;2023-05-02T03:24:03;11.00;99.90
21167;DHT22;10741;52.272;9.580;2023-05-02T03:26:29;11.00;99.90
21167;DHT22;10741;52.272;9.580;2023-05-02T03:28:55;11.00;99.90
21167;DHT22;10741;52.272;9.580;2023-05-02T03:31:22;11.10;99.90
21167;DHT22;10741;52.272;9.580;2023-05-02T03:33:48;11.00;99.90
21167;DHT22;10741;52.272;9.580;2023-05-02T03:36:14;11.00;99.90
21167;DHT22;10741;52.272;9.580;2023-05-02T03:38:40;11.00;99.90
21167;DHT22;10741;52.272;9.580;2023-05-02T03:41:06;11.00;99.90
21167;DHT22;10741;52.272;9.580;2023-05-02T03:43:32;11.00;99.90
21167;DHT22;10741;52.272;9.580;2023-05-02T03:46:06;11.10;99.90
21167;DHT22;10741;52.272;9.580;2023-05-02T03:48:33;11.10;99.90
21167;DHT22;10741;52.272;9.580;2023-05-02T03:51:00;11.10;99.90
21167;DHT22;10741;52.272;9.580;2023-05-02T03:53:26;11.10;99.90
21167;DHT22;10741;52.272;9.580;2023-05-02T03:55:52;11.10;99.90
21167;DHT22;10741;52.272;9.580;2023-05-02T03:58:18;11.10;99.90
21167;DHT22;10741;52.272;9.580;2023-05-02T04:00:44;11.10;99.90
21167;DHT22;10741;52.272;9.580;2023-05-02T04:03:10;11.10;99.90
21167;DHT22;10741;52.272;9.580;2023-05-02T04:05:35;11.10;99.90
21167;DHT22;10741;52.272;9.580;2023-05-02T04:08:01;11.10;99.90
21167;DHT22;10741;52.272;9.580;2023-05-02T04:10:27;11.10;99.90
21167;DHT22;10741;52.272;9.580;2023-05-02T04:12:53;11.10;99.90
21167;DHT22;10741;52.272;9.580;2023-05-02T04:15:19;11.10;99.90
21167;DHT22;10741;52.272;9.580;2023-05-02T04:17:45;11.10;99.90
21167;DHT22;10741;52.272;9.580;2023-05-02T04:20:11;11.10;99.90
21167;DHT22;10741;52.272;9.580;2023-05-02T04:22:37;11.10;99.90
21167;DHT22;10741;52.272;9.580;2023-05-02T04:25:05;11.10;99.90
21167;DHT22;10741;52.272;9.580;2023-05-02T04:27:31;11.10;99.90
21167;DHT22;10741;52.272;9.580;2023-05-02T04:29:57;11.10;99.90
21167;DHT22;10741;52.272;9.580;2023-05-02T04:32:23;11.10;99.90
21167;DHT22;10741;52.272;9.580;2023-05-02T04:34:49;11.10;99.90
21167;DHT22;10741;52.272;9.580;2023-05-02T04:37:15;11.10;99.90
21167;DHT22;10741;52.272;9.580;2023-05-02T04:39:41;11.10;99.90
21167;DHT22;10741;52.272;9.580;2023-05-02T04:42:07;11.10;99.90
21167;DHT22;10741;52.272;9.580;2023-05-02T04:44:33;11.10;99.90
21167;DHT22;10741;52.272;9.580;2023-05-02T04:46:58;11.00;99.90
21167;DHT22;10741;52.272;9.580;2023-05-02T04:49:24;11.00;99.90
21167;DHT22;10741;52.272;9.580;2023-05-02T04:51:50;11.00;99.90
21167;DHT22;10741;52.272;9.580;2023-05-02T04:54:17;10.90;99.90
21167;DHT22;10741;52.272;9.580;2023-05-02T04:56:42;10.90;99.90
21167;DHT22;10741;52.272;9.580;2023-05-02T04:59:08;10.90;99.90
21167;DHT22;10741;52.272;9.580;2023-05-02T05:01:34;10.90;99.90
21167;DHT22;10741;52.272;9.580;2023-05-02T05:04:00;10.90;99.90
21167;DHT22;10741;52.272;9.580;2023-05-02T05:06:26;10.90;99.90
21167;DHT22;10741;52.272;9.580;2023-05-02T05:08:52;10.90;99.90
21167;DHT22;10741;52.272;9.580;2023-05-02T05:11:17;10.90;99.90
21167;DHT22;10741;52.272;9.580;2023-05-02T05:13:43;10.90;99.90
21167;DHT22;10741;52.272;9.580;2023-05-02T05:16:09;10.90;99.90
21167;DHT22;10741;52.272;9.580;2023-05-02T05:18:35;10.90;99.90
21167;DHT22;10741;52.272;9.580;2023-05-02T05:21:06;10.90;99.90
21167;DHT22;10741;52.272;9.580;2023-05-02T05:23:32;10.80;99.90
21167;DHT22;10741;52.272;9.580;2023-05-02T05:26:08;10.80;99.90
21167;DHT22;10741;52.272;9.580;2023-05-02T05:28:34;10.40;99.90
21167;DHT22;10741;52.272;9.580;2023-05-02T05:31:07;10.10;99.90
21167;DHT22;10741;52.272;9.580;2023-05-02T05:33:34;9.90;99.90
21167;DHT22;10741;52.272;9.580;2023-05-02T05:36:18;9.80;99.90
21167;DHT22;10741;52.272;9.580;2023-05-02T05:38:43;9.70;99.90
21167;DHT22;10741;52.272;9.580;2023-05-02T05:41:09;9.70;99.90
21167;DHT22;10741;52.272;9.580;2023-05-02T05:43:35;9.50;99.90
21167;DHT22;10741;52.272;9.580;2023-05-02T05:46:02;9.50;99.90
21167;DHT22;10741;52.272;9.580;2023-05-02T05:48:27;9.40;99.90
21167;DHT22;10741;52.272;9.580;2023-05-02T05:50:53;9.40;99.90
21167;DHT22;10741;52.272;9.580;2023-05-02T05:53:19;9.30;99.90
21167;DHT22;10741;52.272;9.580;2023-05-02T05:55:46;9.30;99.90
21167;DHT22;10741;52.272;9.580;2023-05-02T05:58:11;9.30;99.90
21167;DHT22;10741;52.272;9.580;2023-05-02T06:00:38;9.30;99.90
21167;DHT22;10741;52.272;9.580;2023-05-02T06:03:05;9.20;99.90
21167;DHT22;10741;52.272;9.580;2023-05-02T06:05:31;9.10;99.90
21167;DHT22;10741;52.272;9.580;2023-05-02T06:07:58;9.10;99.90
21167;DHT22;10741;52.272;9.580;2023-05-02T06:10:24;9.10;99.90
21167;DHT22;10741;52.272;9.580;2023-05-02T06:12:50;9.10;99.90
21167;DHT22;10741;52.272;9.580;2023-05-02T06:15:16;9.10;99.90
21167;DHT22;10741;52.272;9.580;2023-05-02T06:17:42;9.10;99.90
21167;DHT22;10741;52.272;9.580;2023-05-02T06:20:08;9.00;99.90
21167;DHT22;10741;52.272;9.580;2023-05-02T06:22:35;8.90;99.90
21167;DHT22;10741;52.272;9.580;2023-05-02T06:25:01;8.90;99.90
21167;DHT22;10741;52.272;9.580;2023-05-02T06:27:26;8.90;99.90
21167;DHT22;10741;52.272;9.580;2023-05-02T06:29:52;8.80;99.90
21167;DHT22;10741;52.272;9.580;2023-05-02T06:32:18;8.80;99.90
21167;DHT22;10741;52.272;9.580;2023-05-02T06:34:44;8.70;99.90
21167;DHT22;10741;52.272;9.580;2023-05-02T06:37:10;8.70;99.90
21167;DHT22;10741;52.272;9.580;2023-05-02T06:39:36;8.70;99.90
21167;DHT22;10741;52.272;9.580;2023-05-02T06:42:02;8.80;99.90
21167;DHT22;10741;52.272;9.580;2023-05-02T06:44:28;8.70;99.90
21167;DHT22;10741;52.272;9.580;2023-05-02T06:46:54;8.80;99.90
21167;DHT22;10741;52.272;9.580;2023-05-02T06:49:22;8.80;99.90
21167;DHT22;10741;52.272;9.580;2023-05-02T06:51:48;8.90;99.90
21167;DHT22;10741;52.272;9.580;2023-05-02T06:54:14;8.80;99.90
21167;DHT22;10741;52.272;9.580;2023-05-02T06:56:41;8.80;99.90
21167;DHT22;10741;52.272;9.580;2023-05-02T06:59:07;8.90;99.90
21167;DHT22;10741;52.272;9.580;2023-05-02T07:01:32;9.00;99.90
21167;DHT22;10741;52.272;9.580;2023-05-02T07:03:59;9.10;99.90
21167;DHT22;10741;52.272;9.580;2023-05-02T07:06:25;9.10;99.90
21167;DHT22;10741;52.272;9.580;2023-05-02T07:08:51;9.30;99.90
21167;DHT22;10741;52.272;9.580;2023-05-02T07:11:17;9.50;99.90
21167;DHT22;10741;52.272;9.580;2023-05-02T07:13:42;9.60;99.90
21167;DHT22;10741;52.272;9.580;2023-05-02T07:16:08;9.70;99.90
21167;DHT22;10741;52.272;9.580;2023-05-02T07:18:34;9.80;99.90
21167;DHT22;10741;52.272;9.580;2023-05-02T07:21:00;9.70;99.90
21167;DHT22;10741;52.272;9.580;2023-05-02T07:23:26;9.70;99.90
21167;DHT22;10741;52.272;9.580;2023-05-02T07:25:52;9.60;99.90
21167;DHT22;10741;52.272;9.580;2023-05-02T07:28:18;9.50;99.90
21167;DHT22;10741;52.272;9.580;2023-05-02T07:30:44;9.50;99.90
21167;DHT22;10741;52.272;9.580;2023-05-02T07:33:10;9.60;99.90
21167;DHT22;10741;52.272;9.580;2023-05-02T07:35:36;9.60;99.90
21167;DHT22;10741;52.272;9.580;2023-05-02T07:38:02;9.70;99.90
21167;DHT22;10741;52.272;9.580;2023-05-02T07:40:28;9.70;99.90
21167;DHT22;10741;52.272;9.580;2023-05-02T07:42:53;9.70;99.90
21167;DHT22;10741;52.272;9.580;2023-05-02T07:45:19;9.60;99.90
21167;DHT22;10741;52.272;9.580;2023-05-02T07:47:45;9.70;99.90
21167;DHT22;10741;52.272;9.580;2023-05-02T07:50:11;9.60;99.90
21167;DHT22;10741;52.272;9.580;2023-05-02T07:52:37;9.60;99.90
21167;DHT22;10741;52.272;9.580;2023-05-02T07:55:03;9.70;99.90
21167;DHT22;10741;52.272;9.580;2023-05-02T07:57:29;9.70;99.90
21167;DHT22;10741;52.272;9.580;2023-05-02T07:59:55;9.70;99.90
21167;DHT22;10741;52.272;9.580;2023-05-02T08:02:21;9.70;99.90
21167;DHT22;10741;52.272;9.580;2023-05-02T08:04:48;9.70;99.90
21167;DHT22;10741;52.272;9.580;2023-05-02T08:07:14;9.60;99.90
21167;DHT22;10741;52.272;9.580;2023-05-02T08:09:41;9.70;99.90
21167;DHT22;10741;52.272;9.580;2023-05-02T08:12:07;9.80;99.90
21167;DHT22;10741;52.272;9.580;2023-05-02T08:14:33;9.80;99.90
21167;DHT22;10741;52.272;9.580;2023-05-02T08:16:59;9.90;99.90
21167;DHT22;10741;52.272;9.580;2023-05-02T08:19:24;9.90;99.90
21167;DHT22;10741;52.272;9.580;2023-05-02T08:21:52;9.80;99.90
21167;DHT22;10741;52.272;9.580;2023-05-02T08:24:18;9.80;99.90
21167;DHT22;10741;52.272;9.580;2023-05-02T08:26:44;9.80;99.90
21167;DHT22;10741;52.272;9.580;2023-05-02T08:29:10;9.60;99.90
21167;DHT22;10741;52.272;9.580;2023-05-02T08:31:37;9.50;99.90
21167;DHT22;10741;52.272;9.580;2023-05-02T08:34:02;9.40;99.90
21167;DHT22;10741;52.272;9.580;2023-05-02T08:36:28;9.30;99.90
21167;DHT22;10741;52.272;9.580;2023-05-02T08:38:54;9.30;99.90
21167;DHT22;10741;52.272;9.580;2023-05-02T08:41:21;9.30;99.90
21167;DHT22;10741;52.272;9.580;2023-05-02T08:43:48;9.40;99.90
21167;DHT22;10741;52.272;9.580;2023-05-02T08:46:15;9.40;99.90
21167;DHT22;10741;52.272;9.580;2023-05-02T08:48:43;9.50;99.90
21167;DHT22;10741;52.272;9.580;2023-05-02T08:51:16;9.60;99.90
21167;DHT22;10741;52.272;9.580;2023-05-02T08:53:42;9.60;99.90
21167;DHT22;10741;52.272;9.580;2023-05-02T08:56:10;9.70;99.90
21167;DHT22;10741;52.272;9.580;2023-05-02T08:58:39;9.70;99.90
21167;DHT22;10741;52.272;9.580;2023-05-02T09:01:15;9.70;99.90
21167;DHT22;10741;52.272;9.580;2023-05-02T09:03:43;9.70;99.90
21167;DHT22;10741;52.272;9.580;2023-05-02T09:06:13;9.50;99.90
21167;DHT22;10741;52.272;9.580;2023-05-02T09:08:43;9.40;99.90
21167;DHT22;10741;52.272;9.580;2023-05-02T09:11:10;9.40;99.90
21167;DHT22;10741;52.272;9.580;2023-05-02T09:16:24;9.40;99.90
21167;DHT22;10741;52.272;9.580;2023-05-02T09:18:52;9.40;99.90
21167;DHT22;10741;52.272;9.580;2023-05-02T09:21:25;9.30;99.90
21167;DHT22;10741;52.272;9.580;2023-05-02T09:23:55;9.30;99.90
21167;DHT22;10741;52.272;9.580;2023-05-02T09:26:26;9.20;99.90
21167;DHT22;10741;52.272;9.580;2023-05-02T09:28:56;9.20;99.90
21167;DHT22;10741;52.272;9.580;2023-05-02T09:31:24;9.40;99.90
21167;DHT22;10741;52.272;9.580;2023-05-02T09:33:53;9.60;99.90
21167;DHT22;10741;52.272;9.580;2023-05-02T09:36:23;9.60;99.90
21167;DHT22;10741;52.272;9.580;2023-05-02T09:39:08;9.50;99.90
21167;DHT22;10741;52.272;9.580;2023-05-02T09:41:45;9.50;99.90
21167;DHT22;10741;52.272;9.580;2023-05-02T09:44:13;9.40;99.90
21167;DHT22;10741;52.272;9.580;2023-05-02T09:46:42;9.50;99.90
21167;DHT22;10741;52.272;9.580;2023-05-02T09:49:08;9.40;99.90
21167;DHT22;10741;52.272;9.580;2023-05-02T09:51:37;9.60;99.90
21167;DHT22;10741;52.272;9.580;2023-05-02T09:54:03;9.70;99.90
21167;DHT22;10741;52.272;9.580;2023-05-02T09:56:29;9.70;99.90
21167;DHT22;10741;52.272;9.580;2023-05-02T09:59:14;9.90;99.90
21167;DHT22;10741;52.272;9.580;2023-05-02T10:01:40;10.10;99.90
21167;DHT22;10741;52.272;9.580;2023-05-02T10:04:11;10.10;99.90
21167;DHT22;10741;52.272;9.580;2023-05-02T10:06:44;10.20;99.90
21167;DHT22;10741;52.272;9.580;2023-05-02T10:09:10;10.30;99.90
21167;DHT22;10741;52.272;9.580;2023-05-02T10:11:43;10.50;99.90
21167;DHT22;10741;52.272;9.580;2023-05-02T10:14:10;10.50;99.90
21167;DHT22;10741;52.272;9.580;2023-05-02T10:17:04;10.40;99.90
21167;DHT22;10741;52.272;9.580;2023-05-02T10:19:41;10.40;99.90
21167;DHT22;10741;52.272;9.580;2023-05-02T10:22:11;10.30;99.90
21167;DHT22;10741;52.272;9.580;2023-05-02T10:24:39;10.30;99.90
21167;DHT22;10741;52.272;9.580;2023-05-02T10:27:05;10.40;99.90
21167;DHT22;10741;52.272;9.580;2023-05-02T10:29:32;10.60;99.90
21167;DHT22;10741;52.272;9.580;2023-05-02T10:32:00;10.90;99.90
21167;DHT22;10741;52.272;9.580;2023-05-02T10:34:31;10.90;99.90
21167;DHT22;10741;52.272;9.580;2023-05-02T10:36:57;11.10;99.90
21167;DHT22;10741;52.272;9.580;2023-05-02T10:39:26;11.40;99.90
21167;DHT22;10741;52.272;9.580;2023-05-02T10:41:53;11.40;99.90
21167;DHT22;10741;52.272;9.580;2023-05-02T10:46:58;11.80;99.90
21167;DHT22;10741;52.272;9.580;2023-05-02T10:49:24;11.90;99.90
21167;DHT22;10741;52.272;9.580;2023-05-02T10:51:52;11.90;99.90
21167;DHT22;10741;52.272;9.580;2023-05-02T10:54:24;11.70;99.90
21167;DHT22;10741;52.272;9.580;2023-05-02T10:59:43;11.50;99.90
21167;DHT22;10741;52.272;9.580;2023-05-02T11:05:06;11.50;99.90
21167;DHT22;10741;52.272;9.580;2023-05-02T11:07:36;11.40;99.90
21167;DHT22;10741;52.272;9.580;2023-05-02T11:18:12;11.50;99.90
21167;DHT22;10741;52.272;9.580;2023-05-02T11:20:42;11.70;99.90
21167;DHT22;10741;52.272;9.580;2023-05-02T11:25:44;11.60;99.90
21167;DHT22;10741;52.272;9.580;2023-05-02T11:31:03;11.60;99.90
21167;DHT22;10741;52.272;9.580;2023-05-02T11:33:29;11.40;99.90
21167;DHT22;10741;52.272;9.580;2023-05-02T11:35:54;11.50;99.90
21167;DHT22;10741;52.272;9.580;2023-05-02T11:38:25;11.60;99.90
21167;DHT22;10741;52.272;9.580;2023-05-02T11:40:53;11.70;99.90
21167;DHT22;10741;52.272;9.580;2023-05-02T11:43:20;11.80;99.90
21167;DHT22;10741;52.272;9.580;2023-05-02T11:45:46;11.80;99.90
21167;DHT22;10741;52.272;9.580;2023-05-02T11:48:15;11.60;99.90
21167;DHT22;10741;52.272;9.580;2023-05-02T11:53:13;11.40;99.90
21167;DHT22;10741;52.272;9.580;2023-05-02T11:55:52;11.50;99.90
21167;DHT22;10741;52.272;9.580;2023-05-02T11:58:20;11.50;99.90
21167;DHT22;10741;52.272;9.580;2023-05-02T12:00:47;11.40;99.90
21167;DHT22;10741;52.272;9.580;2023-05-02T12:05:56;11.50;99.90
21167;DHT22;10741;52.272;9.580;2023-05-02T12:08:26;11.60;99.90
21167;DHT22;10741;52.272;9.580;2023-05-02T12:10:56;12.00;99.90
21167;DHT22;10741;52.272;9.580;2023-05-02T12:13:23;12.30;99.90
21167;DHT22;10741;52.272;9.580;2023-05-02T12:15:51;12.80;99.90
21167;DHT22;10741;52.272;9.580;2023-05-02T12:18:18;13.00;99.90
21167;DHT22;10741;52.272;9.580;2023-05-02T12:20:44;13.20;99.90
21167;DHT22;10741;52.272;9.580;2023-05-02T12:23:11;13.20;99.90
21167;DHT22;10741;52.272;9.580;2023-05-02T12:25:40;13.30;99.90
21167;DHT22;10741;52.272;9.580;2023-05-02T12:28:07;13.80;99.90
21167;DHT22;10741;52.272;9.580;2023-05-02T12:30:34;15.60;99.90
21167;DHT22;10741;52.272;9.580;2023-05-02T12:33:03;16.20;99.90
21167;DHT22;10741;52.272;9.580;2023-05-02T12:35:30;16.90;99.90
21167;DHT22;10741;52.272;9.580;2023-05-02T12:38:09;17.20;99.90
21167;DHT22;10741;52.272;9.580;2023-05-02T12:40:35;16.30;98.20
21167;DHT22;10741;52.272;9.580;2023-05-02T12:43:03;15.10;99.90
21167;DHT22;10741;52.272;9.580;2023-05-02T12:45:31;14.10;99.90
21167;DHT22;10741;52.272;9.580;2023-05-02T12:48:17;13.60;99.90
21167;DHT22;10741;52.272;9.580;2023-05-02T12:50:43;13.40;99.90
21167;DHT22;10741;52.272;9.580;2023-05-02T12:53:09;12.90;99.90
21167;DHT22;10741;52.272;9.580;2023-05-02T12:55:35;12.70;99.90
21167;DHT22;10741;52.272;9.580;2023-05-02T12:58:01;12.70;99.90
21167;DHT22;10741;52.272;9.580;2023-05-02T13:00:27;12.90;99.90
21167;DHT22;10741;52.272;9.580;2023-05-02T13:02:53;13.80;99.90
21167;DHT22;10741;52.272;9.580;2023-05-02T13:05:19;15.20;99.90
21167;DHT22;10741;52.272;9.580;2023-05-02T13:07:45;16.40;99.60
21167;DHT22;10741;52.272;9.580;2023-05-02T13:10:11;15.80;98.90
21167;DHT22;10741;52.272;9.580;2023-05-02T13:12:38;14.50;99.90
21167;DHT22;10741;52.272;9.580;2023-05-02T13:15:05;13.80;99.90
21167;DHT22;10741;52.272;9.580;2023-05-02T13:17:31;13.30;99.90
21167;DHT22;10741;52.272;9.580;2023-05-02T13:19:57;13.10;99.90
21167;DHT22;10741;52.272;9.580;2023-05-02T13:22:24;13.00;99.90
21167;DHT22;10741;52.272;9.580;2023-05-02T13:24:50;12.90;99.90
21167;DHT22;10741;52.272;9.580;2023-05-02T13:27:16;13.20;99.90
21167;DHT22;10741;52.272;9.580;2023-05-02T13:29:46;13.40;99.90
21167;DHT22;10741;52.272;9.580;2023-05-02T13:32:13;13.70;99.90
21167;DHT22;10741;52.272;9.580;2023-05-02T13:34:38;13.40;99.90
21167;DHT22;10741;52.272;9.580;2023-05-02T13:37:04;14.10;99.90
21167;DHT22;10741;52.272;9.580;2023-05-02T13:39:30;14.10;99.90
21167;DHT22;10741;52.272;9.580;2023-05-02T13:41:56;13.90;99.90
21167;DHT22;10741;52.272;9.580;2023-05-02T13:44:21;13.90;99.90
21167;DHT22;10741;52.272;9.580;2023-05-02T13:46:47;14.50;99.90
21167;DHT22;10741;52.272;9.580;2023-05-02T13:49:13;14.60;99.90
21167;DHT22;10741;52.272;9.580;2023-05-02T13:51:39;14.40;99.70
21167;DHT22;10741;52.272;9.580;2023-05-02T13:54:05;13.90;99.90
21167;DHT22;10741;52.272;9.580;2023-05-02T13:56:31;13.50;99.50
21167;DHT22;10741;52.272;9.580;2023-05-02T13:58:56;14.20;99.90
21167;DHT22;10741;52.272;9.580;2023-05-02T14:01:23;14.20;99.90
21167;DHT22;10741;52.272;9.580;2023-05-02T14:03:51;14.00;99.90
21167;DHT22;10741;52.272;9.580;2023-05-02T14:06:16;13.80;99.90
21167;DHT22;10741;52.272;9.580;2023-05-02T14:08:42;13.60;99.90
21167;DHT22;10741;52.272;9.580;2023-05-02T14:11:09;13.40;99.90
21167;DHT22;10741;52.272;9.580;2023-05-02T14:13:36;13.10;99.90
21167;DHT22;10741;52.272;9.580;2023-05-02T14:16:02;13.30;99.90
21167;DHT22;10741;52.272;9.580;2023-05-02T14:18:28;13.20;99.90
21167;DHT22;10741;52.272;9.580;2023-05-02T14:20:53;13.20;99.90
21167;DHT22;10741;52.272;9.580;2023-05-02T14:23:27;13.40;99.90
21167;DHT22;10741;52.272;9.580;2023-05-02T14:25:53;13.40;99.90
21167;DHT22;10741;52.272;9.580;2023-05-02T14:28:19;13.30;99.90
21167;DHT22;10741;52.272;9.580;2023-05-02T14:30:47;13.10;99.90
21167;DHT22;10741;52.272;9.580;2023-05-02T14:33:13;12.80;99.90
21167;DHT22;10741;52.272;9.580;2023-05-02T14:35:39;12.60;99.90
21167;DHT22;10741;52.272;9.580;2023-05-02T14:38:05;12.40;99.90
21167;DHT22;10741;52.272;9.580;2023-05-02T14:40:31;12.60;99.90
21167;DHT22;10741;52.272;9.580;2023-05-02T14:42:57;12.70;99.90
21167;DHT22;10741;52.272;9.580;2023-05-02T14:45:23;12.90;99.90
21167;DHT22;10741;52.272;9.580;2023-05-02T14:47:49;12.90;99.90
21167;DHT22;10741;52.272;9.580;2023-05-02T14:50:17;12.80;99.90
21167;DHT22;10741;52.272;9.580;2023-05-02T14:52:43;12.60;99.90
21167;DHT22;10741;52.272;9.580;2023-05-02T14:55:11;12.40;99.90
21167;DHT22;10741;52.272;9.580;2023-05-02T14:57:37;12.30;99.90
21167;DHT22;10741;52.272;9.580;2023-05-02T15:00:04;12.50;99.90
21167;DHT22;10741;52.272;9.580;2023-05-02T15:02:32;12.40;99.90
21167;DHT22;10741;52.272;9.580;2023-05-02T15:04:58;12.30;99.90
21167;DHT22;10741;52.272;9.580;2023-05-02T15:07:24;12.10;99.90
21167;DHT22;10741;52.272;9.580;2023-05-02T15:09:51;12.10;99.90
21167;DHT22;10741;52.272;9.580;2023-05-02T15:12:16;12.10;99.90
21167;DHT22;10741;52.272;9.580;2023-05-02T15:14:42;12.20;99.90
21167;DHT22;10741;52.272;9.580;2023-05-02T15:17:08;12.10;99.90
21167;DHT22;10741;52.272;9.580;2023-05-02T15:19:34;11.90;99.90
21167;DHT22;10741;52.272;9.580;2023-05-02T15:21:59;11.70;99.90
21167;DHT22;10741;52.272;9.580;2023-05-02T15:24:26;11.80;99.90
21167;DHT22;10741;52.272;9.580;2023-05-02T15:26:52;11.70;99.90
21167;DHT22;10741;52.272;9.580;2023-05-02T15:29:18;11.60;99.90
21167;DHT22;10741;52.272;9.580;2023-05-02T15:31:43;11.50;99.90
21167;DHT22;10741;52.272;9.580;2023-05-02T15:34:09;11.50;99.90
21167;DHT22;10741;52.272;9.580;2023-05-02T15:36:35;11.60;99.90
21167;DHT22;10741;52.272;9.580;2023-05-02T15:39:04;11.60;99.90
21167;DHT22;10741;52.272;9.580;2023-05-02T15:41:29;11.60;99.90
21167;DHT22;10741;52.272;9.580;2023-05-02T15:43:58;11.50;99.90
21167;DHT22;10741;52.272;9.580;2023-05-02T15:46:24;11.50;99.90
21167;DHT22;10741;52.272;9.580;2023-05-02T15:48:50;11.50;99.90
21167;DHT22;10741;52.272;9.580;2023-05-02T15:51:16;11.50;99.90
21167;DHT22;10741;52.272;9.580;2023-05-02T15:53:42;11.60;99.90
21167;DHT22;10741;52.272;9.580;2023-05-02T15:56:12;11.60;99.90
21167;DHT22;10741;52.272;9.580;2023-05-02T15:58:39;11.40;99.90
21167;DHT22;10741;52.272;9.580;2023-05-02T16:01:05;11.30;99.90
21167;DHT22;10741;52.272;9.580;2023-05-02T16:03:31;11.20;99.90
21167;DHT22;10741;52.272;9.580;2023-05-02T16:05:59;11.20;99.90
21167;DHT22;10741;52.272;9.580;2023-05-02T16:08:26;11.30;99.90
21167;DHT22;10741;52.272;9.580;2023-05-02T16:10:52;11.30;99.90
21167;DHT22;10741;52.272;9.580;2023-05-02T16:13:18;11.30;99.90
21167;DHT22;10741;52.272;9.580;2023-05-02T16:15:44;11.30;99.90
21167;DHT22;10741;52.272;9.580;2023-05-02T16:18:13;11.40;99.90
21167;DHT22;10741;52.272;9.580;2023-05-02T16:20:39;11.20;99.90
21167;DHT22;10741;52.272;9.580;2023-05-02T16:23:05;11.30;99.90
21167;DHT22;10741;52.272;9.580;2023-05-02T16:25:31;11.20;99.90
21167;DHT22;10741;52.272;9.580;2023-05-02T16:27:57;11.20;99.90
21167;DHT22;10741;52.272;9.580;2023-05-02T16:30:23;11.20;99.90
21167;DHT22;10741;52.272;9.580;2023-05-02T16:32:48;11.10;99.90
21167;DHT22;10741;52.272;9.580;2023-05-02T16:35:14;11.10;99.90